Time;durP1;ratioP1;P1;durP2;ratioP2;P2;SDS_P1;SDS_P2;PMS_P1;PMS_P2;Temp;Humidity;BMP_temperature;BMP_pressure;BME280_temperature;BME280_humidity;BME280_pressure;Samples;Min_cycle;Max_cycle;Signal;HPM_P1;HPM_P2
2024/01/31 00:00:20;;;;;;;256.42;79.47;;;0.10;93.70;;;;;;5115453;28;20058;-73
2024/01/31 00:02:46;;;;;;;185.75;54.65;;;0.10;94.00;;;;;;5129660;27;20019;-81
2024/01/31 00:05:14;;;;;;;215.27;60.75;;;0.10;94.00;;;;;;5122422;27;20542;-73
2024/01/31 00:07:42;;;;;;;153.70;48.45;;;0.10;94.20;;;;;;5132363;28;20027;-81
2024/01/31 00:10:09;;;;;;;115.40;36.20;;;0.10;94.30;;;;;;5125186;27;20022;-80
2024/01/31 00:12:34;;;;;;;131.07;41.85;;;0.20;94.40;;;;;;5127973;27;20057;-74
2024/01/31 00:15:00;;;;;;;90.97;29.08;;;0.20;94.50;;;;;;5021238;28;20100;-81
2024/01/31 00:17:26;;;;;;;78.07;24.98;;;0.20;94.50;;;;;;5039486;28;20050;-82
2024/01/31 00:19:52;;;;;;;82.30;25.80;;;0.20;94.20;;;;;;5028913;28;20042;-74
2024/01/31 00:22:18;;;;;;;68.60;21.88;;;0.20;94.20;;;;;;5087438;28;20023;-81
2024/01/31 00:24:44;;;;;;;66.10;23.35;;;0.20;94.30;;;;;;5056335;28;20029;-82
2024/01/31 00:27:09;;;;;;;62.80;20.52;;;0.30;94.30;;;;;;5131345;27;20072;-81
2024/01/31 00:29:35;;;;;;;57.30;19.45;;;0.30;94.20;;;;;;5058657;28;20017;-82
2024/01/31 00:32:01;;;;;;;50.35;18.30;;;0.20;94.20;;;;;;5086814;28;20068;-74
2024/01/31 00:34:26;;;;;;;63.05;20.38;;;0.20;94.50;;;;;;5087890;27;20422;-82
2024/01/31 00:36:52;;;;;;;53.42;19.00;;;0.20;94.80;;;;;;5132316;28;20035;-73
2024/01/31 00:39:20;;;;;;;53.90;21.83;;;0.20;95.10;;;;;;5027341;28;20018;-73
2024/01/31 00:41:47;;;;;;;61.58;19.58;;;0.20;95.30;;;;;;5093712;27;20019;-73
2024/01/31 00:44:13;;;;;;;44.65;15.95;;;0.20;95.90;;;;;;5072919;27;20106;-74
2024/01/31 00:46:44;;;;;;;56.58;19.38;;;0.10;96.20;;;;;;5070666;27;20034;-81
2024/01/31 00:49:10;;;;;;;65.20;21.90;;;0.10;96.40;;;;;;5030155;28;20029;-83
2024/01/31 00:51:35;;;;;;;56.92;21.35;;;0.10;96.90;;;;;;5097550;27;20102;-81
2024/01/31 00:54:01;;;;;;;54.25;19.45;;;0.00;97.10;;;;;;5119353;27;20102;-81
2024/01/31 00:56:27;;;;;;;80.50;25.85;;;0.00;98.10;;;;;;5071638;27;20041;-81
2024/01/31 00:58:52;;;;;;;90.47;24.40;;;0.00;98.30;;;;;;5030570;27;20528;-73
2024/01/31 01:01:18;;;;;;;68.57;21.50;;;0.00;98.50;;;;;;5033888;27;20113;-81
2024/01/31 01:03:44;;;;;;;41.40;16.50;;;0.00;98.90;;;;;;5036347;27;20378;-82
2024/01/31 01:06:10;;;;;;;32.40;13.77;;;-0.10;99.30;;;;;;5032364;27;20032;-73
2024/01/31 01:08:35;;;;;;;23.70;12.05;;;-0.10;99.90;;;;;;5034033;27;20037;-82
2024/01/31 01:11:01;;;;;;;26.52;12.55;;;-0.10;99.90;;;;;;5032219;27;20025;-73
2024/01/31 01:13:27;;;;;;;19.27;9.85;;;-0.20;99.90;;;;;;5033824;27;20411;-81
2024/01/31 01:15:52;;;;;;;24.15;11.02;;;-0.20;99.90;;;;;;5031021;28;20018;-81
2024/01/31 01:18:18;;;;;;;29.10;12.45;;;-0.20;99.90;;;;;;5030290;27;20021;-74
2024/01/31 01:20:45;;;;;;;20.42;10.13;;;-0.20;99.90;;;;;;5032320;28;20360;-81
2024/01/31 01:23:11;;;;;;;20.48;11.35;;;-0.20;99.90;;;;;;5029347;28;20026;-73
2024/01/31 01:25:37;;;;;;;25.75;11.35;;;-0.20;99.90;;;;;;5032867;28;20355;-82
2024/01/31 01:28:03;;;;;;;25.48;11.18;;;-0.30;99.90;;;;;;5031612;27;20033;-75
2024/01/31 01:30:28;;;;;;;23.60;10.80;;;-0.30;99.90;;;;;;5080594;27;20030;-74
2024/01/31 01:32:54;;;;;;;27.20;11.82;;;-0.30;99.90;;;;;;5097322;27;20028;-80
2024/01/31 01:35:20;;;;;;;36.47;17.13;;;-0.30;99.90;;;;;;5047345;27;20491;-74
2024/01/31 01:37:45;;;;;;;63.53;26.08;;;-0.30;99.90;;;;;;5117425;27;20097;-81
2024/01/31 01:40:11;;;;;;;48.80;22.75;;;-0.30;99.90;;;;;;5072857;27;20034;-76
2024/01/31 01:42:38;;;;;;;39.90;19.55;;;-0.40;99.90;;;;;;5085505;27;20537;-82
2024/01/31 01:45:04;;;;;;;23.45;11.63;;;-0.40;99.90;;;;;;5031311;28;20040;-73
2024/01/31 01:47:30;;;;;;;18.17;10.82;;;-0.40;99.90;;;;;;5039755;27;20037;-75
2024/01/31 01:49:56;;;;;;;20.55;10.73;;;-0.50;99.90;;;;;;5134274;27;20049;-75
2024/01/31 01:52:22;;;;;;;23.00;13.32;;;-0.50;99.90;;;;;;5045712;27;20032;-75
2024/01/31 01:54:48;;;;;;;27.02;14.30;;;-0.50;99.90;;;;;;5051791;27;20474;-75
2024/01/31 01:57:13;;;;;;;26.27;12.05;;;-0.50;99.90;;;;;;5047317;27;20029;-82
2024/01/31 01:59:41;;;;;;;41.38;17.33;;;-0.50;99.90;;;;;;5085194;27;20031;-83
2024/01/31 02:02:07;;;;;;;43.65;18.10;;;-0.60;99.90;;;;;;5094591;27;20024;-83
2024/01/31 02:04:34;;;;;;;43.17;17.35;;;-0.60;99.90;;;;;;5064420;27;20436;-83
2024/01/31 02:07:00;;;;;;;54.03;19.10;;;-0.60;99.90;;;;;;5093239;27;20059;-75
2024/01/31 02:09:26;;;;;;;60.35;20.90;;;-0.60;99.90;;;;;;5133852;27;20023;-75
2024/01/31 02:11:53;;;;;;;74.53;29.33;;;-0.60;99.90;;;;;;5098243;27;20085;-82
2024/01/31 02:14:18;;;;;;;69.32;26.00;;;-0.60;99.90;;;;;;5133850;27;20019;-74
2024/01/31 02:16:44;;;;;;;61.55;23.20;;;-0.60;99.90;;;;;;5100377;27;20118;-82
2024/01/31 02:19:10;;;;;;;59.13;23.25;;;-0.60;99.90;;;;;;5030883;28;20029;-82
2024/01/31 02:21:39;;;;;;;58.42;19.92;;;-0.60;99.90;;;;;;5030214;28;20045;-74
2024/01/31 02:24:04;;;;;;;55.80;22.63;;;-0.60;99.90;;;;;;5047941;27;20025;-73
2024/01/31 02:26:31;;;;;;;66.60;25.85;;;-0.70;99.90;;;;;;5029565;28;20030;-80
2024/01/31 02:28:56;;;;;;;68.82;26.33;;;-0.70;99.90;;;;;;5031751;28;20106;-80
2024/01/31 02:31:22;;;;;;;48.13;22.02;;;-0.70;99.90;;;;;;5035560;28;20489;-73
2024/01/31 02:33:47;;;;;;;36.25;14.88;;;-0.80;99.90;;;;;;5034246;27;20029;-81
2024/01/31 02:36:13;;;;;;;41.15;17.02;;;-0.80;99.90;;;;;;5039467;27;20013;-73
2024/01/31 02:38:39;;;;;;;47.33;20.20;;;-0.80;99.90;;;;;;5026965;28;20057;-73
2024/01/31 02:41:04;;;;;;;43.88;18.02;;;-0.80;99.90;;;;;;5031572;27;20017;-73
2024/01/31 02:43:30;;;;;;;36.95;17.55;;;-0.90;99.90;;;;;;5033076;27;20014;-73
2024/01/31 02:45:56;;;;;;;45.00;19.60;;;-0.90;99.90;;;;;;5033657;27;20023;-81
2024/01/31 02:48:21;;;;;;;64.43;30.27;;;-0.90;99.90;;;;;;5021191;28;20084;-73
2024/01/31 02:50:47;;;;;;;28.30;15.38;;;-1.00;99.90;;;;;;5038235;27;20466;-81
2024/01/31 02:53:12;;;;;;;21.85;13.15;;;-1.00;99.90;;;;;;5034831;27;20053;-74
2024/01/31 02:55:38;;;;;;;73.55;32.70;;;-1.00;99.90;;;;;;5033539;28;20167;-73
2024/01/31 02:58:04;;;;;;;39.10;19.45;;;-1.00;99.90;;;;;;5034354;27;20057;-81
2024/01/31 03:00:29;;;;;;;34.58;17.17;;;-1.00;99.90;;;;;;5036045;27;20394;-81
2024/01/31 03:02:55;;;;;;;38.92;17.15;;;-1.00;99.90;;;;;;5032005;27;20018;-82
2024/01/31 03:05:21;;;;;;;37.13;17.27;;;-1.00;99.90;;;;;;5033170;27;20025;-82
2024/01/31 03:07:46;;;;;;;43.65;19.70;;;-1.00;99.90;;;;;;5031806;27;20040;-82
2024/01/31 03:10:12;;;;;;;30.50;15.43;;;-0.90;99.90;;;;;;5030508;28;20018;-74
2024/01/31 03:12:38;;;;;;;35.38;17.42;;;-0.90;99.90;;;;;;5031076;28;20048;-74
2024/01/31 03:15:04;;;;;;;32.17;16.25;;;-0.90;99.90;;;;;;5043775;27;20029;-74
2024/01/31 03:17:35;;;;;;;38.45;17.08;;;-0.90;99.90;;;;;;5021706;28;20034;-74
2024/01/31 03:20:05;;;;;;;40.60;17.67;;;-0.90;99.90;;;;;;5052966;27;20023;-74
2024/01/31 03:22:31;;;;;;;39.15;17.42;;;-0.80;99.90;;;;;;5112732;27;20060;-81
2024/01/31 03:24:57;;;;;;;31.75;15.32;;;-0.80;99.90;;;;;;5029902;27;20022;-74
2024/01/31 03:27:22;;;;;;;34.55;15.98;;;-0.80;99.90;;;;;;5046835;27;20035;-81
2024/01/31 03:29:48;;;;;;;28.08;15.18;;;-0.80;99.90;;;;;;5087247;27;20067;-74
2024/01/31 03:32:14;;;;;;;29.10;14.57;;;-0.80;99.90;;;;;;5043361;27;20382;-74
2024/01/31 03:34:39;;;;;;;29.88;15.77;;;-0.80;99.90;;;;;;5054360;27;20033;-81
2024/01/31 03:37:05;;;;;;;29.48;15.18;;;-0.80;99.90;;;;;;5097623;27;20031;-82
2024/01/31 03:39:32;;;;;;;36.83;16.23;;;-0.80;99.90;;;;;;5049005;27;20042;-82
2024/01/31 03:41:58;;;;;;;33.80;16.38;;;-0.70;99.90;;;;;;5061493;27;20125;-74
2024/01/31 03:44:24;;;;;;;36.13;16.10;;;-0.70;99.90;;;;;;5081621;27;20080;-74
2024/01/31 03:46:50;;;;;;;37.10;17.45;;;-0.80;99.90;;;;;;5057103;27;20483;-74
2024/01/31 03:49:15;;;;;;;35.88;18.33;;;-0.80;99.90;;;;;;5052880;27;20101;-74
2024/01/31 03:51:41;;;;;;;61.40;28.90;;;-0.70;99.90;;;;;;5091290;27;20421;-82
2024/01/31 03:54:07;;;;;;;45.25;21.45;;;-0.70;99.90;;;;;;5065628;27;20091;-74
2024/01/31 03:56:32;;;;;;;64.30;28.75;;;-0.70;99.90;;;;;;5129898;27;20031;-74
2024/01/31 03:58:58;;;;;;;61.05;29.80;;;-0.70;99.90;;;;;;5073189;27;20022;-76
2024/01/31 04:01:23;;;;;;;46.90;22.75;;;-0.70;99.90;;;;;;5126242;27;20075;-82
2024/01/31 04:03:49;;;;;;;45.88;22.15;;;-0.70;99.90;;;;;;5114934;28;20382;-82
2024/01/31 04:06:15;;;;;;;37.08;16.95;;;-0.70;99.90;;;;;;5058133;28;20011;-75
2024/01/31 04:08:40;;;;;;;24.35;13.35;;;-0.70;99.90;;;;;;5067053;27;20065;-74
2024/01/31 04:11:06;;;;;;;30.50;15.95;;;-0.70;99.90;;;;;;5030786;28;20022;-82
2024/01/31 04:13:32;;;;;;;31.40;16.45;;;-0.70;99.90;;;;;;5023174;28;20054;-82
2024/01/31 04:15:58;;;;;;;59.17;29.10;;;-0.70;99.90;;;;;;5033924;28;20010;-82
2024/01/31 04:18:24;;;;;;;47.22;22.65;;;-0.70;99.90;;;;;;5034181;27;20083;-82
2024/01/31 04:20:50;;;;;;;25.40;14.38;;;-0.60;99.90;;;;;;5037334;27;20529;-82
2024/01/31 04:23:16;;;;;;;25.50;14.90;;;-0.60;99.90;;;;;;5037526;27;20022;-74
2024/01/31 04:25:41;;;;;;;33.95;17.88;;;-0.50;99.90;;;;;;5028822;28;20541;-81
2024/01/31 04:28:07;;;;;;;30.60;16.13;;;-0.50;99.90;;;;;;5068464;27;20611;-81
2024/01/31 04:30:33;;;;;;;38.45;19.25;;;-0.50;99.90;;;;;;5032811;28;20086;-81
2024/01/31 04:33:02;;;;;;;33.50;18.15;;;-0.50;99.90;;;;;;5031807;27;20021;-80
2024/01/31 04:35:28;;;;;;;35.50;17.63;;;-0.50;99.90;;;;;;5063066;27;20023;-80
2024/01/31 04:37:54;;;;;;;33.13;18.40;;;-0.50;99.90;;;;;;5117017;27;20017;-73
2024/01/31 04:40:20;;;;;;;32.08;18.33;;;-0.50;99.90;;;;;;5061939;27;20118;-74
2024/01/31 04:42:47;;;;;;;33.50;17.88;;;-0.40;99.90;;;;;;5117352;27;20104;-74
2024/01/31 04:45:15;;;;;;;31.67;16.65;;;-0.40;99.90;;;;;;5035322;27;20105;-74
2024/01/31 04:47:42;;;;;;;28.48;15.82;;;-0.40;99.90;;;;;;5032883;28;20094;-82
2024/01/31 04:50:08;;;;;;;34.58;17.30;;;-0.40;99.90;;;;;;5035251;27;20090;-74
2024/01/31 04:52:33;;;;;;;33.25;16.98;;;-0.40;99.90;;;;;;5034086;27;20108;-73
2024/01/31 04:54:59;;;;;;;37.28;17.08;;;-0.40;99.90;;;;;;5022572;27;20059;-74
2024/01/31 04:57:25;;;;;;;33.95;16.88;;;-0.40;99.90;;;;;;5033286;27;20017;-82
2024/01/31 04:59:50;;;;;;;34.58;17.98;;;-0.40;99.90;;;;;;5033288;27;20025;-74
2024/01/31 05:02:16;;;;;;;38.85;18.55;;;-0.40;99.90;;;;;;5032401;28;20021;-74
2024/01/31 05:04:41;;;;;;;34.83;18.17;;;-0.40;99.90;;;;;;5031813;28;20022;-74
2024/01/31 05:07:07;;;;;;;36.60;17.50;;;-0.40;99.90;;;;;;5032568;28;20013;-73
2024/01/31 05:09:33;;;;;;;40.45;19.67;;;-0.40;99.90;;;;;;5032352;28;20188;-81
2024/01/31 05:11:58;;;;;;;38.28;20.05;;;-0.30;99.90;;;;;;5097915;27;20058;-81
2024/01/31 05:14:24;;;;;;;40.50;19.70;;;-0.30;99.90;;;;;;5032222;28;20033;-72
2024/01/31 05:16:50;;;;;;;37.15;17.67;;;-0.30;99.90;;;;;;5031628;28;20044;-81
2024/01/31 05:19:16;;;;;;;53.03;24.85;;;-0.20;99.90;;;;;;5044828;27;20023;-80
2024/01/31 05:21:45;;;;;;;36.35;18.40;;;-0.20;99.90;;;;;;5117907;27;20038;-81
2024/01/31 05:24:11;;;;;;;36.17;18.42;;;-0.10;99.90;;;;;;5062810;27;20484;-81
2024/01/31 05:26:37;;;;;;;41.75;20.70;;;-0.10;99.90;;;;;;5134246;27;20024;-82
2024/01/31 05:29:03;;;;;;;32.92;17.63;;;0.00;99.90;;;;;;5117353;27;20029;-73
2024/01/31 05:31:28;;;;;;;37.70;19.08;;;0.00;99.90;;;;;;5134321;27;20023;-82
2024/01/31 05:33:54;;;;;;;46.78;21.65;;;0.00;99.90;;;;;;5088584;27;20028;-81
2024/01/31 05:36:19;;;;;;;36.35;18.38;;;0.10;99.90;;;;;;5095513;27;20496;-73
2024/01/31 05:38:45;;;;;;;33.47;17.90;;;0.10;99.90;;;;;;5128117;27;20019;-74
2024/01/31 05:41:12;;;;;;;35.03;17.70;;;0.10;99.90;;;;;;5133672;27;20023;-82
2024/01/31 05:43:38;;;;;;;35.90;17.42;;;0.20;99.90;;;;;;5102097;27;20021;-73
2024/01/31 05:46:03;;;;;;;37.20;17.73;;;0.20;99.90;;;;;;5057682;27;20120;-82
2024/01/31 05:48:29;;;;;;;38.15;20.08;;;0.20;99.90;;;;;;5117821;27;20113;-82
2024/01/31 05:50:55;;;;;;;36.63;17.67;;;0.20;99.90;;;;;;5132542;27;20027;-85
2024/01/31 05:53:20;;;;;;;29.38;16.58;;;0.30;99.90;;;;;;5094742;27;20474;-82
2024/01/31 05:55:46;;;;;;;37.30;18.77;;;0.30;99.90;;;;;;5049800;27;20037;-83
2024/01/31 05:58:12;;;;;;;35.50;18.20;;;0.40;99.90;;;;;;5112461;27;20061;-83
2024/01/31 06:00:37;;;;;;;42.20;20.02;;;0.40;99.90;;;;;;5093782;27;20031;-73
2024/01/31 06:03:03;;;;;;;35.45;18.38;;;0.40;99.90;;;;;;5111086;27;20034;-73
2024/01/31 06:05:29;;;;;;;34.55;19.90;;;0.50;99.90;;;;;;5091371;27;20019;-81
2024/01/31 06:07:55;;;;;;;39.45;20.40;;;0.50;99.90;;;;;;5118523;27;20050;-73
2024/01/31 06:10:21;;;;;;;38.88;20.08;;;0.60;99.90;;;;;;5088147;27;20110;-81
2024/01/31 06:12:46;;;;;;;34.53;19.58;;;0.60;99.90;;;;;;5071350;27;20077;-76
2024/01/31 06:15:13;;;;;;;37.20;18.67;;;0.70;99.90;;;;;;5073849;27;20031;-81
2024/01/31 06:17:40;;;;;;;35.75;17.05;;;0.70;99.90;;;;;;5067919;27;20022;-73
2024/01/31 06:20:07;;;;;;;33.47;17.30;;;0.70;99.90;;;;;;5133626;27;20023;-73
2024/01/31 06:22:33;;;;;;;38.33;19.27;;;0.80;99.90;;;;;;5066331;27;20386;-73
2024/01/31 06:24:59;;;;;;;37.92;18.75;;;0.80;99.90;;;;;;5027075;28;20101;-81
2024/01/31 06:27:24;;;;;;;37.00;18.35;;;0.80;99.90;;;;;;5030515;27;20044;-80
2024/01/31 06:29:50;;;;;;;42.72;21.27;;;0.90;99.90;;;;;;5095390;27;20029;-73
2024/01/31 06:32:21;;;;;;;30.65;17.92;;;0.90;99.90;;;;;;5035813;27;20479;-73
2024/01/31 06:34:47;;;;;;;36.80;18.23;;;0.90;99.90;;;;;;5031380;27;20104;-81
2024/01/31 06:37:12;;;;;;;47.38;23.58;;;1.00;99.90;;;;;;5051194;27;20034;-82
2024/01/31 06:39:38;;;;;;;60.42;29.00;;;1.00;99.90;;;;;;5117041;27;20030;-82
2024/01/31 06:42:06;;;;;;;80.10;33.00;;;1.00;99.90;;;;;;5063070;27;20015;-82
2024/01/31 06:44:32;;;;;;;39.55;19.75;;;1.00;99.90;;;;;;5116249;27;20022;-82
2024/01/31 06:46:58;;;;;;;57.42;27.48;;;1.10;99.90;;;;;;5056897;27;20038;-80
2024/01/31 06:49:24;;;;;;;36.08;17.98;;;1.10;99.90;;;;;;5080999;27;20054;-81
2024/01/31 06:51:50;;;;;;;41.05;22.73;;;1.10;99.90;;;;;;5033686;27;20022;-82
2024/01/31 06:54:16;;;;;;;38.90;20.70;;;1.20;99.90;;;;;;5026656;28;20550;-73
2024/01/31 06:56:42;;;;;;;39.05;18.65;;;1.20;99.90;;;;;;5057401;27;20502;-73
2024/01/31 06:59:08;;;;;;;32.13;16.50;;;1.20;99.90;;;;;;5042779;27;20034;-74
2024/01/31 07:01:34;;;;;;;37.10;20.25;;;1.30;99.90;;;;;;5101520;27;20033;-74
2024/01/31 07:04:00;;;;;;;35.75;18.50;;;1.30;99.90;;;;;;5076146;27;20031;-73
2024/01/31 07:06:25;;;;;;;29.50;17.38;;;1.30;99.90;;;;;;5073660;27;20027;-73
2024/01/31 07:08:51;;;;;;;40.30;18.85;;;1.30;99.90;;;;;;5093398;27;20042;-73
2024/01/31 07:11:17;;;;;;;33.58;18.05;;;1.30;99.90;;;;;;5066530;27;20022;-73
2024/01/31 07:13:43;;;;;;;40.47;22.05;;;1.30;99.90;;;;;;5040565;27;20098;-73
2024/01/31 07:16:10;;;;;;;36.72;18.05;;;1.40;99.90;;;;;;5031697;28;20092;-73
2024/01/31 07:18:45;;;;;;;33.28;18.05;;;1.40;99.90;;;;;;5035067;27;20112;-74
2024/01/31 07:21:11;;;;;;;34.00;18.75;;;1.40;99.90;;;;;;5035513;27;20054;-74
2024/01/31 07:23:37;;;;;;;31.27;17.15;;;1.40;99.90;;;;;;5032356;27;20026;-73
2024/01/31 07:26:03;;;;;;;44.90;22.30;;;1.50;99.90;;;;;;5126734;27;20536;-73
2024/01/31 07:28:33;;;;;;;96.18;39.33;;;1.50;99.90;;;;;;5096589;27;20491;-73
2024/01/31 07:31:02;;;;;;;89.45;38.03;;;1.50;99.90;;;;;;5099574;27;20027;-74
2024/01/31 07:33:28;;;;;;;99.90;45.25;;;1.50;99.90;;;;;;5111039;27;20051;-73
2024/01/31 07:35:53;;;;;;;255.85;104.10;;;1.50;99.90;;;;;;5051450;27;20493;-73
2024/01/31 07:38:20;;;;;;;431.35;164.95;;;1.60;99.90;;;;;;5049923;27;20029;-74
2024/01/31 07:40:46;;;;;;;448.40;183.60;;;1.60;99.90;;;;;;5095665;27;20053;-73
2024/01/31 07:43:11;;;;;;;396.30;143.68;;;1.60;99.90;;;;;;5097865;27;20046;-73
2024/01/31 07:45:37;;;;;;;125.32;46.85;;;1.70;99.90;;;;;;5066355;27;20025;-73
2024/01/31 07:48:03;;;;;;;179.25;59.72;;;1.70;99.90;;;;;;5066052;27;20069;-73
2024/01/31 07:50:29;;;;;;;202.27;79.75;;;1.70;99.90;;;;;;5069076;27;20025;-81
2024/01/31 07:52:54;;;;;;;115.22;40.80;;;1.70;99.90;;;;;;5107691;27;20068;-74
2024/01/31 07:55:20;;;;;;;177.63;58.17;;;1.70;99.90;;;;;;5058271;27;20504;-73
2024/01/31 07:57:46;;;;;;;93.32;34.25;;;1.70;99.90;;;;;;5027928;28;20135;-73
2024/01/31 08:00:12;;;;;;;52.80;25.17;;;1.70;99.90;;;;;;5053785;27;20070;-80
2024/01/31 08:02:38;;;;;;;154.90;66.97;;;1.70;99.90;;;;;;5022248;28;20013;-80
2024/01/31 08:05:05;;;;;;;212.50;88.97;;;1.70;99.90;;;;;;5016172;28;20016;-80
2024/01/31 08:07:30;;;;;;;149.02;59.42;;;1.70;99.90;;;;;;5026801;28;20082;-73
2024/01/31 08:09:56;;;;;;;109.00;37.13;;;1.70;99.90;;;;;;5074754;27;20094;-80
2024/01/31 08:12:22;;;;;;;82.00;32.17;;;1.70;99.90;;;;;;5110071;27;20563;-80
2024/01/31 08:14:47;;;;;;;67.05;29.42;;;1.80;99.90;;;;;;5051032;27;20372;-81
2024/01/31 08:17:13;;;;;;;66.25;28.90;;;1.80;99.90;;;;;;5085034;28;20026;-80
2024/01/31 08:19:39;;;;;;;61.40;26.30;;;1.80;99.90;;;;;;5130620;28;20123;-80
2024/01/31 08:22:04;;;;;;;123.40;57.42;;;1.80;99.90;;;;;;5056795;28;20029;-81
2024/01/31 08:24:30;;;;;;;123.47;43.75;;;1.90;99.90;;;;;;5026970;28;20579;-79
2024/01/31 08:26:56;;;;;;;69.05;28.25;;;1.90;99.90;;;;;;5033618;28;20056;-72
2024/01/31 08:29:21;;;;;;;67.80;28.55;;;1.90;99.90;;;;;;5043127;28;20030;-72
2024/01/31 08:31:48;;;;;;;53.95;23.65;;;1.90;99.90;;;;;;5063588;27;20116;-74
2024/01/31 08:34:14;;;;;;;68.13;35.15;;;1.90;99.90;;;;;;5051049;28;20013;-72
2024/01/31 08:36:40;;;;;;;73.28;31.85;;;1.90;99.90;;;;;;5028439;28;20125;-72
2024/01/31 08:39:08;;;;;;;384.25;136.45;;;1.90;99.90;;;;;;5073824;28;20469;-72
2024/01/31 08:41:34;;;;;;;556.45;229.18;;;1.90;99.90;;;;;;5090760;27;20034;-73
2024/01/31 08:44:01;;;;;;;491.55;184.60;;;2.00;99.90;;;;;;5042925;28;20040;-73
2024/01/31 08:46:28;;;;;;;253.10;83.97;;;2.00;99.90;;;;;;5024461;28;20086;-74
2024/01/31 08:48:53;;;;;;;113.45;43.85;;;2.00;99.90;;;;;;5026667;28;20553;-74
2024/01/31 08:51:19;;;;;;;127.38;45.13;;;2.00;99.90;;;;;;5024933;28;20046;-74
2024/01/31 08:53:45;;;;;;;394.10;153.60;;;2.00;99.90;;;;;;5027215;28;20029;-73
2024/01/31 08:56:11;;;;;;;484.63;181.43;;;2.10;99.90;;;;;;5085507;27;20122;-73
2024/01/31 08:58:37;;;;;;;314.00;96.15;;;2.10;99.90;;;;;;5043128;28;20065;-74
2024/01/31 09:01:03;;;;;;;146.98;44.53;;;2.20;99.90;;;;;;5024218;28;20041;-74
2024/01/31 09:03:29;;;;;;;84.88;29.23;;;2.20;99.90;;;;;;5028520;27;20026;-73
2024/01/31 09:05:55;;;;;;;324.30;119.40;;;2.20;99.90;;;;;;5026193;28;20041;-73
2024/01/31 09:08:21;;;;;;;653.78;275.45;;;2.30;99.90;;;;;;5020551;28;20517;-73
2024/01/31 09:10:47;;;;;;;358.13;122.82;;;2.30;99.90;;;;;;5030795;27;20086;-73
2024/01/31 09:13:12;;;;;;;189.60;56.78;;;2.30;99.90;;;;;;5035632;27;20427;-73
2024/01/31 09:15:38;;;;;;;121.53;42.92;;;2.40;99.90;;;;;;5063661;27;20494;-72
2024/01/31 09:18:04;;;;;;;80.05;31.95;;;2.40;99.90;;;;;;5061767;27;20105;-73
2024/01/31 09:20:30;;;;;;;131.77;53.35;;;2.40;99.90;;;;;;5014185;28;20044;-73
2024/01/31 09:22:56;;;;;;;267.48;79.20;;;2.50;99.90;;;;;;5030935;28;20036;-74
2024/01/31 09:25:22;;;;;;;111.30;38.42;;;2.50;99.90;;;;;;5030320;27;20027;-73
2024/01/31 09:27:47;;;;;;;50.10;22.08;;;2.50;99.90;;;;;;5025597;28;20045;-73
2024/01/31 09:30:13;;;;;;;37.83;18.30;;;2.60;99.90;;;;;;5036382;27;20019;-73
2024/01/31 09:32:39;;;;;;;309.23;112.22;;;2.60;99.90;;;;;;5030856;28;20033;-73
2024/01/31 09:35:06;;;;;;;366.38;135.82;;;2.60;99.90;;;;;;5028743;28;20044;-73
2024/01/31 09:37:34;;;;;;;161.98;56.55;;;2.70;99.90;;;;;;5029754;28;20086;-73
2024/01/31 09:40:00;;;;;;;46.75;21.70;;;2.80;99.90;;;;;;5030996;28;20092;-73
2024/01/31 09:42:29;;;;;;;42.78;20.88;;;2.80;99.90;;;;;;5021109;28;20128;-74
2024/01/31 09:44:58;;;;;;;45.22;23.00;;;2.80;99.90;;;;;;5018959;28;20025;-73
2024/01/31 09:47:30;;;;;;;358.52;131.88;;;2.90;99.90;;;;;;5022738;28;20452;-73
2024/01/31 09:49:56;;;;;;;238.50;73.60;;;2.90;99.90;;;;;;5061639;27;20024;-73
2024/01/31 09:52:29;;;;;;;83.10;30.17;;;2.90;99.90;;;;;;5026045;28;20121;-74
2024/01/31 09:54:58;;;;;;;;;;;2.90;99.90;;;;;;5027403;28;20059;-73
2024/01/31 09:57:25;;;;;;;46.47;21.25;;;2.90;99.90;;;;;;5013161;27;19916;-74
2024/01/31 09:59:51;;;;;;;43.20;21.50;;;2.90;99.90;;;;;;5021585;27;20075;-74
2024/01/31 10:02:17;;;;;;;333.17;130.43;;;3.00;99.90;;;;;;5093207;27;20039;-77
2024/01/31 10:04:47;;;;;;;104.20;39.30;;;3.00;99.90;;;;;;5063960;27;20021;-75
2024/01/31 10:07:23;;;;;;;118.82;42.55;;;3.00;99.90;;;;;;5030538;27;20069;-75
2024/01/31 10:09:52;;;;;;;89.80;31.75;;;3.00;99.90;;;;;;5055556;27;20025;-76
2024/01/31 10:12:20;;;;;;;81.22;31.50;;;3.00;99.90;;;;;;5100185;27;20074;-76
2024/01/31 10:14:48;;;;;;;90.05;35.03;;;3.00;99.90;;;;;;5041115;27;20107;-77
2024/01/31 10:17:17;;;;;;;132.50;59.15;;;3.00;99.90;;;;;;5043523;27;20108;-76
2024/01/31 10:19:43;;;;;;;150.48;56.03;;;2.90;99.90;;;;;;5018195;28;20502;-76
2024/01/31 10:22:08;;;;;;;78.55;31.10;;;3.00;99.90;;;;;;5029419;28;20126;-78
2024/01/31 10:24:34;;;;;;;58.08;25.55;;;3.00;99.90;;;;;;5035000;27;20022;-77
2024/01/31 10:27:05;;;;;;;63.03;26.40;;;3.00;99.90;;;;;;5030740;28;20132;-77
2024/01/31 10:29:32;;;;;;;61.80;26.73;;;3.00;99.90;;;;;;5028979;27;20057;-76
2024/01/31 10:31:59;;;;;;;76.57;35.08;;;3.00;99.90;;;;;;5037697;27;20066;-76
2024/01/31 10:34:27;;;;;;;162.70;72.80;;;3.00;99.90;;;;;;5038543;27;20025;-77
2024/01/31 10:36:54;;;;;;;50.28;24.02;;;3.10;99.90;;;;;;5023829;27;20128;-77
2024/01/31 10:39:20;;;;;;;86.43;32.35;;;3.10;99.90;;;;;;5055034;27;20027;-77
2024/01/31 10:41:47;;;;;;;54.00;25.08;;;3.10;99.90;;;;;;5114098;27;20032;-77
2024/01/31 10:44:14;;;;;;;49.38;22.02;;;3.10;99.90;;;;;;5034322;27;20053;-77
2024/01/31 10:46:41;;;;;;;84.63;37.88;;;3.10;99.90;;;;;;5039035;27;20042;-77
2024/01/31 10:49:07;;;;;;;152.32;71.40;;;3.10;99.90;;;;;;5019306;28;20464;-77
2024/01/31 10:51:34;;;;;;;91.60;38.60;;;3.10;99.90;;;;;;5040190;27;20073;-78
2024/01/31 10:54:02;;;;;;;63.55;26.80;;;3.00;99.90;;;;;;5052661;27;20358;-75
2024/01/31 10:56:29;;;;;;;87.57;35.85;;;3.00;99.90;;;;;;5092959;27;20012;-75
2024/01/31 10:58:58;;;;;;;51.67;25.23;;;3.00;99.90;;;;;;5043125;27;20074;-75
2024/01/31 11:01:29;;;;;;;53.85;28.38;;;3.00;99.90;;;;;;5060636;27;20023;-75
2024/01/31 11:03:55;;;;;;;86.40;42.55;;;2.90;99.90;;;;;;5092692;27;20098;-74
2024/01/31 11:06:24;;;;;;;92.38;39.70;;;2.90;99.90;;;;;;5053729;27;20147;-74
2024/01/31 11:08:50;;;;;;;63.22;28.98;;;2.90;99.90;;;;;;5030666;27;20114;-74
2024/01/31 11:11:18;;;;;;;59.05;27.95;;;2.80;99.90;;;;;;5036374;27;20105;-74
2024/01/31 11:13:44;;;;;;;65.88;29.33;;;2.80;99.90;;;;;;5031054;28;20041;-74
2024/01/31 11:16:09;;;;;;;64.05;27.75;;;2.80;99.90;;;;;;5054663;27;20022;-74
2024/01/31 11:18:40;;;;;;;53.83;28.30;;;2.80;99.90;;;;;;5027801;28;20638;-74
2024/01/31 11:21:10;;;;;;;110.20;60.65;;;2.90;99.90;;;;;;5027597;28;20383;-74
2024/01/31 11:23:36;;;;;;;64.57;29.77;;;2.90;99.90;;;;;;5028333;28;20037;-73
2024/01/31 11:26:02;;;;;;;73.15;32.35;;;2.90;99.90;;;;;;5029148;28;20037;-74
2024/01/31 11:28:28;;;;;;;50.60;25.98;;;2.90;99.90;;;;;;5030534;28;20530;-75
2024/01/31 11:30:54;;;;;;;60.17;29.08;;;2.90;99.90;;;;;;5028920;28;20073;-73
2024/01/31 11:33:22;;;;;;;58.63;30.92;;;2.80;99.90;;;;;;5028774;28;20050;-74
2024/01/31 11:35:48;;;;;;;86.68;39.85;;;2.80;99.90;;;;;;5108357;27;20019;-75
2024/01/31 11:38:15;;;;;;;67.35;32.17;;;2.70;99.90;;;;;;5075904;27;20040;-81
2024/01/31 11:40:40;;;;;;;57.25;28.02;;;2.70;99.90;;;;;;5052180;27;20082;-80
2024/01/31 11:43:06;;;;;;;51.15;27.20;;;2.70;99.90;;;;;;5026976;28;20479;-83
2024/01/31 11:45:32;;;;;;;59.08;28.63;;;2.60;99.90;;;;;;5028521;28;20394;-82
2024/01/31 11:47:58;;;;;;;62.67;35.70;;;2.60;99.90;;;;;;5029210;28;20090;-82
2024/01/31 11:50:27;;;;;;;65.63;31.85;;;2.60;99.90;;;;;;5071288;27;20112;-84
2024/01/31 11:52:55;;;;;;;77.88;36.58;;;2.50;99.90;;;;;;5030619;27;20094;-82
2024/01/31 11:55:22;;;;;;;58.10;30.10;;;2.40;99.90;;;;;;5022022;28;20433;-82
2024/01/31 11:57:47;;;;;;;108.30;54.60;;;2.50;99.90;;;;;;5024167;28;20076;-81
2024/01/31 12:00:16;;;;;;;122.28;58.75;;;2.40;99.90;;;;;;5033102;27;20037;-80
2024/01/31 12:02:41;;;;;;;103.60;46.40;;;2.40;99.90;;;;;;5019275;28;20034;-74
2024/01/31 12:05:07;;;;;;;76.68;36.10;;;2.40;99.90;;;;;;5084038;28;20032;-74
2024/01/31 12:07:33;;;;;;;58.72;31.13;;;2.50;99.90;;;;;;5023753;28;20478;-80
2024/01/31 12:09:59;;;;;;;78.45;37.75;;;2.60;99.90;;;;;;5035127;28;20026;-80
2024/01/31 12:12:26;;;;;;;76.32;37.38;;;2.70;99.90;;;;;;5046554;28;20071;-80
2024/01/31 12:14:53;;;;;;;64.45;32.45;;;2.70;99.90;;;;;;5127137;27;20027;-80
2024/01/31 12:17:27;;;;;;;55.53;30.60;;;2.70;99.90;;;;;;5045012;28;20395;-81
2024/01/31 12:20:10;;;;;;;54.08;30.52;;;2.70;99.90;;;;;;5027350;28;20069;-81
2024/01/31 12:22:37;;;;;;;133.32;63.97;;;2.60;99.90;;;;;;5050609;28;20023;-81
2024/01/31 12:25:04;;;;;;;96.40;40.20;;;2.60;99.90;;;;;;5025727;28;20529;-82